Startpagina
METAR-TAF:

METAR-TAF

Vliegvelden :

Luchthaven Ouagadougou Internationaal

Ouagadougou, Burkina Faso

breedte: 12-21N, lengte: 001-31W, hoogte: 316 m

Actueel weer

Dit bericht is 1 uur en het 11 minuten geleden gemaakt, om 13:00 UTC
Wind 4 kt uit variabele richting
Temperatuur 37°C
Vochtigheid 33%
Druk 1009 hPa
Zicht 10 km of meer
Weinig wolken op 2000 ft
Verspreide wolken op 2600 ft

METAR: DFFD 261300Z VRB04KT 9999 FEW020 SCT026 37/18 Q1009 TEMPO TS FEW020 SCT026 FEW040CB

Tijdstip: 14:11 (14:11 UTC)

Verwachting

Dit bericht is 1 uur en het 41 minuten geleden gemaakt, om 12:30 UTC
Verwachting geldig van 26 om 13 UTC tot 27 om 18 UTC
Wind 8 kt uit het zuidzuidwesten
Zicht 10 km of meer
Weinig wolken op 2600 ft
Tijdelijke
van 26 om 13 UTC tot 26 om 20 UTC
Zicht: 4000 m
Verspreide wolken op 2600 ft
Weinig wolken op 4000 ft, Cumulonimbus.
onweer, regen

TAF: DFFD 261230Z 2613/2718 20008KT 9999 FEW026 TEMPO 2613/2620 4000 TSRA SCT026 FEW040CB

Waarnemingen en weersverwachtingen van meer dan 4000 vliegvelden (METAR en TAF).

De beschikbare stations zijn de gele en rode punten op de kaart.

Ga met uw muis naar het station om de naam te zien.

Klik dan om waarnemingen en weersverwachtingen te zien.

kaart wijzigen: klik op de groene knoppen met een zwart kruis om in te zoomen, op de groene knop met een streepje om uit te zoomen of op de groene pijlen voor aangrenzende kaarten.


METAR-TAF: